Time;durP1;ratioP1;P1;durP2;ratioP2;P2;SDS_P1;SDS_P2;PMS_P1;PMS_P2;Temp;Humidity;BMP_temperature;BMP_pressure;BME280_temperature;BME280_humidity;BME280_pressure;Samples;Min_cycle;Max_cycle;Signal;HPM_P1;HPM_P2
2022/01/09 07:00:52;;;;;;;47.75;5.68;;;;;;;;;;5673115;23;20055;-84
2022/01/09 07:03:19;;;;;;;53.20;7.22;;;;;;;;;;4878762;29;20085;-85
2022/01/09 07:05:46;;;;;;;63.38;7.03;;;;;;;;;;4893885;29;20048;-86
2022/01/09 07:08:13;;;;;;;64.55;6.90;;;;;;;;;;4889569;29;20137;-84
2022/01/09 07:10:39;;;;;;;61.42;7.30;;;;;;;;;;4889810;29;20052;-85
2022/01/09 07:13:06;;;;;;;44.83;6.20;;;;;;;;;;4891945;29;20049;-85
2022/01/09 07:15:33;;;;;;;48.45;6.13;;;;;;;;;;4876983;29;20058;-86
2022/01/09 07:17:59;;;;;;;44.92;6.07;;;;;;;;;;4876968;29;20047;-85
2022/01/09 07:20:34;;;;;;;44.15;6.13;;;;;;;;;;4892017;29;20144;-85
2022/01/09 07:23:01;;;;;;;47.38;6.07;;;;;;;;;;4893202;29;20517;-84
2022/01/09 07:25:27;;;;;;;49.10;5.82;;;;;;;;;;4892459;29;20108;-82
2022/01/09 07:27:54;;;;;;;48.15;6.60;;;;;;;;;;4892930;29;20403;-85
2022/01/09 07:30:21;;;;;;;45.38;6.05;;;;;;;;;;4894271;29;20048;-85
2022/01/09 07:32:47;;;;;;;53.63;5.85;;;;;;;;;;4896130;29;20048;-87
2022/01/09 07:35:14;;;;;;;54.80;6.45;;;;;;;;;;4896250;29;20056;-86
2022/01/09 07:37:41;;;;;;;38.72;5.28;;;;;;;;;;4896292;29;20071;-86
2022/01/09 07:40:08;;;;;;;36.15;5.45;;;;;;;;;;4876301;29;20056;-85
2022/01/09 07:42:35;;;;;;;47.08;4.93;;;;;;;;;;4895906;29;20581;-87
2022/01/09 07:45:01;;;;;;;41.28;5.55;;;;;;;;;;4879607;29;20057;-85
2022/01/09 07:47:28;;;;;;;64.15;15.40;;;;;;;;;;4895917;29;20481;-86
2022/01/09 07:49:55;;;;;;;39.88;5.25;;;;;;;;;;4895530;29;20052;-85
2022/01/09 07:52:22;;;;;;;35.08;4.38;;;;;;;;;;4878444;29;20104;-86
2022/01/09 07:54:48;;;;;;;33.88;6.22;;;;;;;;;;4895837;29;20056;-85
2022/01/09 07:57:15;;;;;;;35.47;4.35;;;;;;;;;;4895599;29;20049;-84
2022/01/09 07:59:43;;;;;;;37.90;5.22;;;;;;;;;;4882217;29;20048;-88
2022/01/09 08:02:10;;;;;;;31.75;4.13;;;;;;;;;;4875720;29;20080;-86
2022/01/09 08:04:37;;;;;;;33.42;4.15;;;;;;;;;;4871550;29;20052;-87
2022/01/09 08:07:04;;;;;;;39.88;4.30;;;;;;;;;;4885706;29;20056;-84
2022/01/09 08:09:30;;;;;;;34.83;5.22;;;;;;;;;;4873846;29;20052;-86
2022/01/09 08:11:57;;;;;;;31.48;4.05;;;;;;;;;;4892155;29;20066;-84
2022/01/09 08:14:24;;;;;;;38.47;5.05;;;;;;;;;;4887400;29;20053;-87
2022/01/09 08:16:51;;;;;;;33.45;4.25;;;;;;;;;;4882746;29;20056;-85
2022/01/09 08:19:17;;;;;;;38.67;4.97;;;;;;;;;;4891715;29;20047;-86
2022/01/09 08:21:44;;;;;;;42.67;11.05;;;;;;;;;;4893131;29;20056;-88
2022/01/09 08:24:11;;;;;;;36.42;5.60;;;;;;;;;;4886992;29;20052;-87
2022/01/09 08:26:38;;;;;;;44.72;5.85;;;;;;;;;;4894665;29;20055;-87
2022/01/09 08:29:05;;;;;;;44.72;5.35;;;;;;;;;;4893447;29;20096;-89
2022/01/09 08:31:31;;;;;;;24.55;4.25;;;;;;;;;;4876835;29;20056;-88
2022/01/09 08:33:58;;;;;;;35.97;5.38;;;;;;;;;;4891328;29;20048;-87
2022/01/09 08:36:24;;;;;;;31.27;4.55;;;;;;;;;;4875221;29;20588;-84
2022/01/09 08:38:51;;;;;;;36.53;3.78;;;;;;;;;;4892440;29;20108;-87
2022/01/09 08:41:18;;;;;;;33.65;4.97;;;;;;;;;;4892239;29;20056;-86
2022/01/09 08:43:44;;;;;;;31.08;4.97;;;;;;;;;;4892600;29;20410;-87
2022/01/09 08:46:11;;;;;;;38.03;4.97;;;;;;;;;;4870479;29;20081;-86
2022/01/09 08:48:38;;;;;;;32.40;4.78;;;;;;;;;;4894289;29;20069;-87
2022/01/09 08:51:06;;;;;;;30.27;3.92;;;;;;;;;;4873268;29;20104;-89
2022/01/09 08:53:35;;;;;;;33.95;4.95;;;;;;;;;;4893157;29;20048;-86
2022/01/09 08:56:06;;;;;;;27.35;3.10;;;;;;;;;;4892203;29;20491;-90
2022/01/09 08:58:33;;;;;;;29.20;4.32;;;;;;;;;;4890483;29;20044;-86
2022/01/09 09:01:00;;;;;;;46.08;5.70;;;;;;;;;;4882956;29;20064;-86
2022/01/09 09:03:27;;;;;;;38.85;4.95;;;;;;;;;;4884680;29;20051;-86
2022/01/09 09:05:54;;;;;;;28.92;3.80;;;;;;;;;;4888825;29;20052;-86
2022/01/09 09:08:20;;;;;;;27.65;4.00;;;;;;;;;;4886918;29;20051;-84
2022/01/09 09:10:47;;;;;;;30.00;4.03;;;;;;;;;;4886088;29;20044;-85
2022/01/09 09:13:14;;;;;;;30.27;5.03;;;;;;;;;;4884186;29;20457;-87
2022/01/09 09:15:40;;;;;;;37.33;3.80;;;;;;;;;;4884998;29;20056;-86
2022/01/09 09:18:07;;;;;;;25.40;3.95;;;;;;;;;;4885324;29;20060;-85
2022/01/09 09:20:34;;;;;;;35.47;4.28;;;;;;;;;;4884283;29;20044;-84
2022/01/09 09:23:01;;;;;;;28.70;4.93;;;;;;;;;;4885723;29;20056;-84
2022/01/09 09:25:27;;;;;;;30.55;3.70;;;;;;;;;;4868331;29;20048;-84
2022/01/09 09:27:54;;;;;;;33.38;4.70;;;;;;;;;;4890877;29;20048;-85
2022/01/09 09:30:21;;;;;;;33.83;5.15;;;;;;;;;;4889510;29;20071;-84
2022/01/09 09:32:47;;;;;;;34.88;5.07;;;;;;;;;;4869696;29;20111;-84
2022/01/09 09:35:14;;;;;;;30.73;4.00;;;;;;;;;;4886519;29;20049;-83
2022/01/09 09:37:41;;;;;;;35.25;5.10;;;;;;;;;;4887158;29;20059;-84
2022/01/09 09:40:08;;;;;;;28.92;4.00;;;;;;;;;;4889090;29;20076;-84
2022/01/09 09:42:35;;;;;;;38.45;4.20;;;;;;;;;;4887582;29;20048;-86
2022/01/09 09:45:10;;;;;;;23.20;3.35;;;;;;;;;;4870521;29;20044;-85
2022/01/09 09:47:38;;;;;;;23.08;3.75;;;;;;;;;;4887885;29;20048;-84
2022/01/09 09:50:08;;;;;;;31.83;4.05;;;;;;;;;;4888247;29;20163;-85
2022/01/09 09:52:35;;;;;;;22.85;4.10;;;;;;;;;;4889675;29;20121;-84
2022/01/09 09:55:04;;;;;;;24.45;3.55;;;;;;;;;;4887384;29;20053;-84
2022/01/09 09:57:30;;;;;;;26.10;4.22;;;;;;;;;;4877854;29;20820;-83
2022/01/09 10:00:09;;;;;;;25.25;4.10;;;;;;;;;;4885049;29;20096;-84
2022/01/09 10:02:40;;;;;;;30.92;5.40;;;;;;;;;;4884294;29;20484;-82
2022/01/09 10:05:08;;;;;;;24.42;3.65;;;;;;;;;;4888832;29;20064;-85
2022/01/09 10:07:35;;;;;;;27.75;3.83;;;;;;;;;;4883521;29;20057;-85
2022/01/09 10:10:14;;;;;;;36.13;4.07;;;;;;;;;;4888444;29;20083;-82
2022/01/09 10:12:44;;;;;;;29.35;4.40;;;;;;;;;;4887153;29;20045;-84
2022/01/09 10:15:14;;;;;;;25.10;3.67;;;;;;;;;;4889535;29;20052;-84
2022/01/09 10:17:47;;;;;;;41.88;5.20;;;;;;;;;;4874418;29;20718;-84
2022/01/09 10:20:20;;;;;;;35.45;4.30;;;;;;;;;;4880901;29;20512;-86
2022/01/09 10:22:49;;;;;;;40.08;4.60;;;;;;;;;;4867333;29;20052;-86
2022/01/09 10:25:39;;;;;;;39.17;4.63;;;;;;;;;;4891372;29;20052;-86
2022/01/09 10:28:05;;;;;;;37.03;4.75;;;;;;;;;;4888414;29;20100;-86
2022/01/09 10:30:39;;;;;;;42.00;5.53;;;;;;;;;;4864104;29;20060;-86
2022/01/09 10:33:09;;;;;;;40.58;5.28;;;;;;;;;;4883694;29;20108;-86
2022/01/09 10:35:38;;;;;;;41.45;5.15;;;;;;;;;;4886656;29;20056;-86
2022/01/09 10:38:21;;;;;;;47.67;5.25;;;;;;;;;;4890769;29;20052;-86
2022/01/09 10:40:57;;;;;;;41.88;4.82;;;;;;;;;;4889458;29;20120;-86
2022/01/09 10:43:34;;;;;;;39.75;4.45;;;;;;;;;;4888284;29;20648;-84
2022/01/09 10:46:01;;;;;;;27.05;3.80;;;;;;;;;;4889763;29;20112;-86
2022/01/09 10:48:44;;;;;;;34.53;4.10;;;;;;;;;;4882129;29;20135;-86
2022/01/09 10:51:13;;;;;;;34.92;3.75;;;;;;;;;;4886771;29;20072;-86
2022/01/09 10:53:41;;;;;;;40.05;5.45;;;;;;;;;;4892877;29;20052;-87
2022/01/09 10:56:16;;;;;;;42.53;4.47;;;;;;;;;;4873416;29;20044;-84
2022/01/09 10:58:46;;;;;;;49.35;5.07;;;;;;;;;;4887238;29;20532;-84
2022/01/09 11:01:20;;;;;;;32.15;3.95;;;;;;;;;;4886715;29;20059;-83
2022/01/09 11:03:59;;;;;;;43.45;5.45;;;;;;;;;;4871291;29;20112;-83
2022/01/09 11:06:32;;;;;;;29.45;3.65;;;;;;;;;;4887192;29;20052;-84
2022/01/09 11:09:00;;;;;;;29.83;4.97;;;;;;;;;;4892625;29;20056;-86
2022/01/09 11:11:31;;;;;;;;;;;;;;;;;;4892396;29;20526;-84
2022/01/09 11:14:02;;;;;;;31.52;3.88;;;;;;;;;;4874750;29;19927;-85
2022/01/09 11:16:32;;;;;;;27.95;3.78;;;;;;;;;;4891574;29;20104;-84
2022/01/09 11:19:23;;;;;;;30.25;3.97;;;;;;;;;;4890713;29;20120;-84
2022/01/09 11:21:59;;;;;;;22.95;3.92;;;;;;;;;;4887111;29;20121;-82
2022/01/09 11:24:55;;;;;;;33.03;4.55;;;;;;;;;;4891622;29;20047;-82
2022/01/09 11:27:48;;;;;;;32.28;4.65;;;;;;;;;;4890797;29;20057;-80
2022/01/09 11:30:19;;;;;;;39.97;10.63;;;;;;;;;;4891440;29;20136;-81
2022/01/09 11:33:20;;;;;;;38.67;6.88;;;;;;;;;;4892635;29;20055;-83
2022/01/09 11:36:18;;;;;;;33.13;4.15;;;;;;;;;;4892372;29;20055;-83
2022/01/09 11:38:53;;;;;;;23.95;4.45;;;;;;;;;;4891318;29;20053;-84
2022/01/09 11:41:25;;;;;;;32.45;3.55;;;;;;;;;;4891615;29;20155;-84
2022/01/09 11:43:53;;;;;;;37.05;5.15;;;;;;;;;;4892024;29;20139;-84
2022/01/09 11:46:21;;;;;;;36.67;5.80;;;;;;;;;;4889569;29;20057;-84
2022/01/09 11:48:53;;;;;;;27.70;4.15;;;;;;;;;;4892389;29;20169;-83
2022/01/09 11:51:30;;;;;;;37.47;4.47;;;;;;;;;;4892022;29;20044;-83
2022/01/09 11:54:07;;;;;;;37.38;5.63;;;;;;;;;;4892589;29;20056;-83
2022/01/09 11:56:52;;;;;;;40.78;4.82;;;;;;;;;;4890201;29;20521;-83
2022/01/09 11:59:40;;;;;;;32.55;4.20;;;;;;;;;;4892472;29;20055;-84
2022/01/09 12:02:18;;;;;;;27.60;3.60;;;;;;;;;;4890929;29;20049;-83
2022/01/09 12:04:45;;;;;;;35.30;4.82;;;;;;;;;;4891531;29;20577;-83
2022/01/09 12:07:19;;;;;;;35.08;4.85;;;;;;;;;;4891836;29;20103;-84
2022/01/09 12:09:50;;;;;;;29.50;3.47;;;;;;;;;;4891080;29;20104;-82
2022/01/09 12:12:20;;;;;;;30.98;4.25;;;;;;;;;;4891479;29;20040;-86
2022/01/09 12:15:05;;;;;;;36.53;4.22;;;;;;;;;;4889142;29;20057;-84
2022/01/09 12:17:36;;;;;;;34.38;4.65;;;;;;;;;;4892041;29;20059;-84
2022/01/09 12:20:13;;;;;;;36.20;4.88;;;;;;;;;;4891815;29;20059;-84
2022/01/09 12:25:32;;;;;;;40.13;5.28;;;;;;;;;;4891439;29;20517;-83
2022/01/09 12:28:10;;;;;;;32.05;4.90;;;;;;;;;;4891053;29;20534;-84
2022/01/09 12:30:47;;;;;;;39.13;4.55;;;;;;;;;;4889910;29;20091;-85
2022/01/09 12:33:38;;;;;;;41.22;5.93;;;;;;;;;;4885763;29;20049;-84
2022/01/09 12:36:11;;;;;;;44.28;7.13;;;;;;;;;;4888415;29;20117;-83
2022/01/09 12:38:47;;;;;;;48.30;8.13;;;;;;;;;;4891165;29;20104;-86
2022/01/09 12:41:16;;;;;;;66.93;9.77;;;;;;;;;;4891476;29;20136;-85
2022/01/09 12:43:44;;;;;;;47.35;8.27;;;;;;;;;;4891012;29;20433;-85
2022/01/09 12:46:17;;;;;;;102.95;21.70;;;;;;;;;;4889782;29;20057;-86
2022/01/09 12:49:14;;;;;;;44.78;5.90;;;;;;;;;;4889673;29;20053;-86
2022/01/09 12:51:46;;;;;;;49.70;6.80;;;;;;;;;;4890538;29;20505;-85
2022/01/09 12:54:13;;;;;;;40.78;7.30;;;;;;;;;;4890039;29;20525;-87
2022/01/09 12:56:42;;;;;;;38.70;6.72;;;;;;;;;;4890459;29;20120;-84
2022/01/09 12:59:13;;;;;;;43.90;5.50;;;;;;;;;;4891286;29;20136;-83
2022/01/09 13:01:47;;;;;;;29.95;5.63;;;;;;;;;;4890737;29;20060;-83
2022/01/09 13:04:21;;;;;;;39.33;6.07;;;;;;;;;;4890564;29;20059;-84
2022/01/09 13:06:50;;;;;;;37.08;5.10;;;;;;;;;;4890810;29;20522;-83
2022/01/09 13:09:19;;;;;;;43.50;6.05;;;;;;;;;;4891096;29;20420;-83
2022/01/09 13:12:01;;;;;;;40.42;6.53;;;;;;;;;;4891697;29;20112;-83
2022/01/09 13:14:34;;;;;;;38.70;5.47;;;;;;;;;;4890523;29;20048;-83
2022/01/09 13:17:03;;;;;;;37.92;4.90;;;;;;;;;;4874069;29;20060;-82
2022/01/09 13:19:50;;;;;;;50.03;8.18;;;;;;;;;;4890724;29;20052;-83
2022/01/09 13:22:18;;;;;;;48.25;5.70;;;;;;;;;;4890789;29;20522;-86
2022/01/09 13:24:44;;;;;;;53.38;7.82;;;;;;;;;;4888111;29;20108;-83
2022/01/09 13:27:19;;;;;;;59.47;7.72;;;;;;;;;;4890050;29;20057;-82
2022/01/09 13:29:55;;;;;;;41.75;6.15;;;;;;;;;;4891646;29;20183;-83
2022/01/09 13:32:22;;;;;;;56.08;6.22;;;;;;;;;;4889460;29;20104;-83
2022/01/09 13:34:53;;;;;;;54.60;6.38;;;;;;;;;;4889953;29;20055;-83
2022/01/09 13:37:19;;;;;;;50.45;6.28;;;;;;;;;;4889282;29;20058;-82
2022/01/09 13:39:48;;;;;;;47.53;9.02;;;;;;;;;;4890201;29;20112;-84
2022/01/09 13:42:26;;;;;;;48.08;10.73;;;;;;;;;;4889326;29;20064;-84
2022/01/09 13:45:05;;;;;;;60.13;9.60;;;;;;;;;;4891702;29;20048;-84
2022/01/09 13:47:50;;;;;;;48.45;6.82;;;;;;;;;;4873681;29;20513;-83
2022/01/09 13:50:18;;;;;;;60.47;9.70;;;;;;;;;;4887609;29;20562;-84
2022/01/09 13:52:45;;;;;;;50.17;6.10;;;;;;;;;;4889050;29;20048;-83
2022/01/09 13:55:15;;;;;;;55.20;11.27;;;;;;;;;;4887080;29;20135;-84
2022/01/09 13:58:07;;;;;;;58.05;6.65;;;;;;;;;;4888643;29;20374;-85
2022/01/09 14:00:37;;;;;;;48.88;10.73;;;;;;;;;;4889973;29;20131;-85
2022/01/09 14:03:05;;;;;;;59.60;6.53;;;;;;;;;;4889192;29;20052;-83
2022/01/09 14:05:40;;;;;;;46.45;6.10;;;;;;;;;;4887903;29;20406;-84
2022/01/09 14:08:10;;;;;;;44.50;6.28;;;;;;;;;;4888070;29;20573;-84
2022/01/09 14:10:44;;;;;;;43.08;6.18;;;;;;;;;;4889491;29;20044;-83
2022/01/09 14:13:25;;;;;;;28.17;4.38;;;;;;;;;;4884775;29;20044;-84
2022/01/09 14:16:07;;;;;;;28.38;4.88;;;;;;;;;;4891558;29;20055;-83
2022/01/09 14:18:34;;;;;;;41.30;4.70;;;;;;;;;;4888592;29;20108;-86
2022/01/09 14:21:05;;;;;;;31.98;5.00;;;;;;;;;;4892025;29;20079;-83
2022/01/09 14:23:34;;;;;;;30.42;4.60;;;;;;;;;;4889621;29;20045;-85
2022/01/09 14:26:13;;;;;;;32.08;7.32;;;;;;;;;;4889756;29;20052;-86
2022/01/09 14:28:43;;;;;;;31.60;8.50;;;;;;;;;;4884365;29;20535;-86
2022/01/09 14:31:13;;;;;;;27.05;4.70;;;;;;;;;;4889933;29;20044;-87
2022/01/09 14:33:43;;;;;;;32.38;5.10;;;;;;;;;;4891768;29;20208;-86
2022/01/09 14:36:15;;;;;;;30.13;5.22;;;;;;;;;;4890776;29;20084;-88
2022/01/09 14:38:51;;;;;;;23.30;5.22;;;;;;;;;;4892720;29;20060;-89
2022/01/09 14:41:33;;;;;;;44.40;5.88;;;;;;;;;;4897590;29;20440;-88
2022/01/09 14:44:03;;;;;;;38.95;5.68;;;;;;;;;;4891401;29;20561;-86
2022/01/09 14:46:32;;;;;;;33.47;6.80;;;;;;;;;;4890971;29;20056;-85
2022/01/09 14:48:59;;;;;;;29.60;4.93;;;;;;;;;;4894573;29;20052;-87
2022/01/09 14:51:26;;;;;;;36.03;8.15;;;;;;;;;;4891517;29;20072;-85
2022/01/09 14:53:55;;;;;;;49.58;15.02;;;;;;;;;;4895946;29;20084;-89
2022/01/09 14:56:25;;;;;;;30.83;5.07;;;;;;;;;;4898870;29;20060;-88
2022/01/09 14:58:52;;;;;;;37.72;4.25;;;;;;;;;;4892737;29;20543;-85
2022/01/09 15:01:20;;;;;;;50.80;13.07;;;;;;;;;;4893692;29;20048;-88
2022/01/09 15:03:48;;;;;;;23.43;3.70;;;;;;;;;;4896790;29;20045;-84
2022/01/09 15:06:16;;;;;;;43.67;7.60;;;;;;;;;;4889828;29;20056;-86
2022/01/09 15:08:43;;;;;;;36.87;9.90;;;;;;;;;;4907300;29;20136;-89
2022/01/09 15:11:10;;;;;;;34.05;8.38;;;;;;;;;;4899063;29;20285;-89
2022/01/09 15:13:37;;;;;;;34.58;6.40;;;;;;;;;;4894829;29;20049;-89
2022/01/09 15:16:04;;;;;;;26.15;3.70;;;;;;;;;;4891451;29;20543;-88
2022/01/09 15:18:31;;;;;;;26.65;5.65;;;;;;;;;;4892423;29;20052;-86
2022/01/09 15:20:58;;;;;;;26.27;4.13;;;;;;;;;;4890108;29;20116;-85
2022/01/09 15:23:24;;;;;;;24.85;3.92;;;;;;;;;;4894143;29;20049;-88
2022/01/09 15:25:52;;;;;;;22.38;4.40;;;;;;;;;;4873025;29;20128;-86
2022/01/09 15:28:18;;;;;;;27.73;3.40;;;;;;;;;;4873558;29;20609;-93
2022/01/09 15:30:46;;;;;;;18.30;3.22;;;;;;;;;;4894763;29;20513;-91
2022/01/09 15:33:15;;;;;;;18.73;3.03;;;;;;;;;;4889150;29;20052;-89
2022/01/09 15:35:44;;;;;;;19.40;3.17;;;;;;;;;;4887414;29;20072;-89
2022/01/09 15:38:11;;;;;;;24.08;2.90;;;;;;;;;;4895053;29;20064;-90
2022/01/09 15:40:39;;;;;;;23.58;4.03;;;;;;;;;;4892535;29;20068;-89
2022/01/09 15:43:06;;;;;;;14.35;2.78;;;;;;;;;;4878447;29;20114;-87
2022/01/09 15:45:33;;;;;;;17.48;2.90;;;;;;;;;;4875649;29;20113;-90
2022/01/09 15:48:00;;;;;;;15.95;4.43;;;;;;;;;;4876129;29;20116;-89
2022/01/09 15:50:27;;;;;;;14.32;2.88;;;;;;;;;;4891759;29;20044;-91
2022/01/09 15:52:54;;;;;;;36.33;11.32;;;;;;;;;;4897033;29;20052;-87
2022/01/09 15:55:21;;;;;;;13.13;2.92;;;;;;;;;;4891265;29;20067;-88
2022/01/09 15:57:48;;;;;;;13.18;3.25;;;;;;;;;;4893780;29;20049;-88
2022/01/09 16:00:16;;;;;;;11.82;3.30;;;;;;;;;;4894725;29;20048;-89
2022/01/09 16:02:44;;;;;;;17.50;5.10;;;;;;;;;;4896169;29;20092;-89
2022/01/09 16:05:12;;;;;;;9.80;2.50;;;;;;;;;;4894589;29;20059;-88
2022/01/09 16:07:40;;;;;;;12.30;3.50;;;;;;;;;;4893948;29;20063;-90
2022/01/09 16:10:07;;;;;;;13.75;2.72;;;;;;;;;;4894334;29;20044;-89
2022/01/09 16:12:37;;;;;;;14.10;3.00;;;;;;;;;;4892135;29;20044;-88
2022/01/09 16:15:05;;;;;;;18.85;9.70;;;;;;;;;;4895961;29;20057;-94
2022/01/09 16:17:32;;;;;;;10.00;3.60;;;;;;;;;;4897891;29;20048;-93
2022/01/09 16:19:59;;;;;;;11.57;3.20;;;;;;;;;;4877021;29;20104;-92
2022/01/09 16:22:26;;;;;;;11.98;3.28;;;;;;;;;;4879912;29;20289;-92
2022/01/09 16:24:53;;;;;;;11.32;2.25;;;;;;;;;;4893234;29;20080;-93
2022/01/09 16:27:20;;;;;;;20.90;9.85;;;;;;;;;;4890960;29;20099;-89
2022/01/09 16:29:47;;;;;;;28.92;17.38;;;;;;;;;;4891197;29;20463;-89
2022/01/09 16:32:15;;;;;;;17.95;12.43;;;;;;;;;;4871687;29;20382;-89
2022/01/09 16:34:42;;;;;;;7.47;3.58;;;;;;;;;;4890862;29;20048;-92
2022/01/09 16:37:09;;;;;;;8.95;5.57;;;;;;;;;;4891520;29;20053;-92
2022/01/09 16:39:36;;;;;;;5.28;1.88;;;;;;;;;;4893966;29;20114;-91
2022/01/09 16:42:03;;;;;;;11.05;5.32;;;;;;;;;;4894404;29;20045;-91
2022/01/09 16:44:30;;;;;;;5.28;1.88;;;;;;;;;;4875387;29;20048;-92
2022/01/09 16:46:57;;;;;;;23.90;7.97;;;;;;;;;;4893345;29;20104;-90
2022/01/09 16:49:23;;;;;;;7.00;1.98;;;;;;;;;;4896302;29;20060;-93
2022/01/09 16:51:51;;;;;;;7.57;2.80;;;;;;;;;;4879751;29;20571;-95
2022/01/09 16:54:24;;;;;;;10.30;4.38;;;;;;;;;;4877548;29;20053;-93
2022/01/09 16:56:51;;;;;;;10.35;5.10;;;;;;;;;;4879093;29;20056;-93
2022/01/09 16:59:19;;;;;;;6.93;3.80;;;;;;;;;;4894476;29;20045;-93
2022/01/09 17:01:47;;;;;;;8.83;4.03;;;;;;;;;;4891446;29;20063;-94
2022/01/09 17:04:14;;;;;;;13.30;6.43;;;;;;;;;;4893000;29;20300;-93
2022/01/09 17:06:43;;;;;;;7.90;5.28;;;;;;;;;;4873323;29;20124;-93
2022/01/09 17:09:14;;;;;;;8.98;6.25;;;;;;;;;;4883472;29;20078;-95
2022/01/09 17:11:55;;;;;;;10.07;5.65;;;;;;;;;;4888340;29;20529;-94
2022/01/09 17:14:24;;;;;;;11.25;7.95;;;;;;;;;;4892671;29;20064;-94
2022/01/09 17:16:51;;;;;;;98.95;41.03;;;;;;;;;;4894738;29;20048;-95
2022/01/09 17:19:29;;;;;;;242.63;75.28;;;;;;;;;;4882201;29;20048;-95
2022/01/09 17:21:59;;;;;;;138.50;49.38;;;;;;;;;;4889117;29;20109;-91
2022/01/09 17:24:30;;;;;;;56.35;23.42;;;;;;;;;;4884502;29;20054;-94
2022/01/09 17:27:14;;;;;;;11.57;7.45;;;;;;;;;;4896160;29;20616;-93
2022/01/09 17:29:41;;;;;;;17.35;11.45;;;;;;;;;;4883427;29;20057;-94
2022/01/09 17:32:46;;;;;;;19.40;14.20;;;;;;;;;;4880616;29;20067;-94
2022/01/09 17:35:18;;;;;;;27.75;15.82;;;;;;;;;;5016552;23;20088;-94
2022/01/09 17:37:45;;;;;;;25.48;16.58;;;;;;;;;;4899789;29;20063;-93
2022/01/09 17:40:13;;;;;;;23.25;14.23;;;;;;;;;;4915247;29;20048;-92
2022/01/09 17:42:40;;;;;;;15.80;10.25;;;;;;;;;;4897948;29;20050;-93
2022/01/09 17:45:07;;;;;;;17.10;12.23;;;;;;;;;;4914683;29;20052;-92
2022/01/09 17:47:34;;;;;;;26.77;15.73;;;;;;;;;;4914171;29;20048;-91
2022/01/09 17:50:02;;;;;;;142.90;46.17;;;;;;;;;;4912779;29;20593;-90
2022/01/09 17:52:29;;;;;;;143.23;46.25;;;;;;;;;;4913604;29;20502;-92
2022/01/09 17:54:56;;;;;;;31.88;16.02;;;;;;;;;;4897584;29;20127;-92
2022/01/09 17:57:23;;;;;;;46.75;22.40;;;;;;;;;;4894633;29;20056;-92
2022/01/09 17:59:49;;;;;;;46.75;23.85;;;;;;;;;;4898193;29;20064;-94
2022/01/09 18:02:19;;;;;;;42.90;25.88;;;;;;;;;;4895859;29;20075;-91
2022/01/09 18:04:48;;;;;;;20.15;13.40;;;;;;;;;;4912504;29;20052;-92
2022/01/09 18:07:15;;;;;;;21.42;15.35;;;;;;;;;;4898089;29;20055;-92
2022/01/09 18:09:42;;;;;;;26.30;18.88;;;;;;;;;;4914954;29;20120;-91
2022/01/09 18:12:09;;;;;;;34.15;23.08;;;;;;;;;;4896908;29;20056;-90
2022/01/09 18:14:36;;;;;;;32.60;21.60;;;;;;;;;;4897008;29;20063;-93
2022/01/09 18:17:03;;;;;;;79.68;46.40;;;;;;;;;;4898088;29;20056;-93
2022/01/09 18:19:30;;;;;;;257.25;185.30;;;;;;;;;;4915276;29;20587;-93
2022/01/09 18:21:56;;;;;;;74.47;51.83;;;;;;;;;;4898724;29;20485;-94
2022/01/09 18:24:23;;;;;;;40.78;31.38;;;;;;;;;;4898194;29;20048;-94
2022/01/09 18:26:50;;;;;;;36.20;28.30;;;;;;;;;;4898805;29;20048;-93
2022/01/09 18:29:22;;;;;;;44.15;29.88;;;;;;;;;;4896932;29;20108;-91
2022/01/09 18:31:50;;;;;;;64.03;37.28;;;;;;;;;;4896426;29;20055;-93
2022/01/09 18:34:17;;;;;;;63.95;40.75;;;;;;;;;;4912911;29;20127;-94
2022/01/09 18:36:44;;;;;;;60.15;40.72;;;;;;;;;;4911515;29;20075;-94
2022/01/09 18:39:15;;;;;;;41.83;27.83;;;;;;;;;;4897517;29;20143;-94
2022/01/09 18:41:44;;;;;;;58.83;42.55;;;;;;;;;;4921791;29;20048;-91
2022/01/09 18:44:13;;;;;;;42.20;31.15;;;;;;;;;;4911756;29;20056;-94
2022/01/09 18:46:41;;;;;;;56.97;40.00;;;;;;;;;;4898523;29;20513;-94
2022/01/09 18:49:09;;;;;;;174.02;100.25;;;;;;;;;;4898265;29;20054;-95
2022/01/09 18:51:36;;;;;;;104.47;60.05;;;;;;;;;;4903917;29;20052;-94
2022/01/09 18:54:10;;;;;;;84.57;36.30;;;;;;;;;;4901021;28;20033;-95
2022/01/09 18:56:39;;;;;;;105.38;50.53;;;;;;;;;;4908850;29;20048;-92
2022/01/09 18:59:08;;;;;;;67.05;24.23;;;;;;;;;;4913536;29;20529;-96
2022/01/09 19:01:34;;;;;;;;;;;;;;;;;;4898575;29;20048;-92
2022/01/09 19:04:02;;;;;;;37.95;26.80;;;;;;;;;;4896372;29;19923;-92
2022/01/09 19:06:29;;;;;;;19.45;17.35;;;;;;;;;;4915321;29;20187;-92
2022/01/09 19:08:56;;;;;;;20.10;15.63;;;;;;;;;;4897128;29;20056;-95
2022/01/09 19:11:23;;;;;;;8.50;6.43;;;;;;;;;;4910954;29;20052;-90
2022/01/09 19:13:51;;;;;;;7.43;6.20;;;;;;;;;;4894762;29;20096;-91
2022/01/09 19:16:17;;;;;;;6.32;4.93;;;;;;;;;;4911137;29;20095;-92
2022/01/09 19:18:45;;;;;;;8.77;6.70;;;;;;;;;;4911883;29;20044;-91
2022/01/09 19:21:12;;;;;;;3.95;2.97;;;;;;;;;;4896574;29;20811;-91
2022/01/09 19:23:38;;;;;;;2.05;1.58;;;;;;;;;;4912453;29;20048;-89
2022/01/09 19:26:07;;;;;;;3.00;1.77;;;;;;;;;;4893951;29;20055;-92
2022/01/09 19:28:34;;;;;;;2.55;1.00;;;;;;;;;;4900016;29;20040;-89
2022/01/09 19:31:03;;;;;;;2.03;0.80;;;;;;;;;;4898208;29;20466;-92
2022/01/09 19:33:31;;;;;;;2.45;1.35;;;;;;;;;;4898627;29;20570;-92
2022/01/09 19:35:58;;;;;;;1.98;0.90;;;;;;;;;;4898797;29;20056;-90
2022/01/09 19:38:25;;;;;;;7.35;6.60;;;;;;;;;;4897584;29;20056;-87
2022/01/09 19:40:53;;;;;;;7.18;1.13;;;;;;;;;;4898719;29;20055;-89
2022/01/09 19:43:20;;;;;;;8.27;2.30;;;;;;;;;;4914142;29;20048;-89
2022/01/09 19:45:47;;;;;;;15.95;11.25;;;;;;;;;;4913359;29;20040;-89
2022/01/09 19:48:14;;;;;;;17.92;6.88;;;;;;;;;;4897197;29;20517;-92
2022/01/09 19:50:42;;;;;;;11.45;2.00;;;;;;;;;;4916582;29;20056;-91
2022/01/09 19:53:11;;;;;;;11.77;5.28;;;;;;;;;;4915009;29;20056;-91
2022/01/09 19:55:38;;;;;;;16.92;4.05;;;;;;;;;;4915975;29;20051;-92
2022/01/09 19:58:05;;;;;;;11.50;3.40;;;;;;;;;;4899420;29;20043;-92
2022/01/09 20:00:31;;;;;;;13.65;2.17;;;;;;;;;;4915932;29;20048;-92
2022/01/09 20:02:59;;;;;;;18.88;8.65;;;;;;;;;;4901449;29;20056;-95
2022/01/09 20:05:28;;;;;;;18.98;4.90;;;;;;;;;;4896841;29;20143;-93
2022/01/09 20:07:55;;;;;;;20.45;4.90;;;;;;;;;;4901653;29;20052;-94
2022/01/09 20:10:33;;;;;;;29.63;12.02;;;;;;;;;;4916692;29;20146;-91
2022/01/09 20:13:00;;;;;;;22.23;3.50;;;;;;;;;;4903754;29;20040;-94
2022/01/09 20:15:26;;;;;;;17.45;2.88;;;;;;;;;;4926611;29;20107;-92
2022/01/09 20:17:54;;;;;;;23.70;6.03;;;;;;;;;;4926567;29;20044;-95
2022/01/09 20:20:25;;;;;;;12.27;2.70;;;;;;;;;;4919680;29;20412;-94
2022/01/09 20:22:59;;;;;;;19.85;7.15;;;;;;;;;;4902474;29;20584;-91
2022/01/09 20:25:27;;;;;;;16.17;3.92;;;;;;;;;;4918735;29;20148;-93
2022/01/09 20:27:54;;;;;;;10.43;1.77;;;;;;;;;;4923314;29;20059;-93
2022/01/09 20:30:21;;;;;;;9.43;1.67;;;;;;;;;;4920905;29;20054;-94
2022/01/09 20:32:48;;;;;;;9.10;2.47;;;;;;;;;;4902341;29;20670;-94
2022/01/09 20:35:15;;;;;;;16.77;6.10;;;;;;;;;;4916369;29;20060;-93
2022/01/09 20:37:43;;;;;;;15.85;3.22;;;;;;;;;;4917704;29;20048;-93
2022/01/09 20:40:10;;;;;;;33.70;8.88;;;;;;;;;;4910980;29;20112;-93
2022/01/09 20:42:36;;;;;;;29.92;9.15;;;;;;;;;;4903132;29;20055;-92
2022/01/09 20:45:04;;;;;;;21.42;3.45;;;;;;;;;;4913798;29;20056;-91
2022/01/09 20:47:31;;;;;;;16.20;4.47;;;;;;;;;;4915031;29;20052;-93
2022/01/09 20:49:58;;;;;;;18.70;2.92;;;;;;;;;;4913787;29;20058;-94
2022/01/09 20:52:25;;;;;;;16.13;2.60;;;;;;;;;;4914045;29;20903;-91
2022/01/09 20:54:52;;;;;;;16.45;2.97;;;;;;;;;;4914076;29;20080;-89
2022/01/09 20:57:19;;;;;;;18.92;4.65;;;;;;;;;;4913899;29;20108;-93
2022/01/09 20:59:47;;;;;;;18.40;3.78;;;;;;;;;;4916300;29;20074;-93
2022/01/09 21:02:17;;;;;;;16.65;3.90;;;;;;;;;;4896627;29;20060;-90
2022/01/09 21:04:46;;;;;;;17.63;2.35;;;;;;;;;;4914312;29;20052;-92
2022/01/09 21:07:13;;;;;;;20.15;2.50;;;;;;;;;;4898530;29;20059;-92
2022/01/09 21:09:44;;;;;;;28.77;5.05;;;;;;;;;;4913712;29;20122;-90
2022/01/09 21:12:12;;;;;;;23.33;5.53;;;;;;;;;;4914515;29;20139;-92
2022/01/09 21:14:46;;;;;;;27.45;4.13;;;;;;;;;;4918327;29;20052;-94
2022/01/09 21:17:15;;;;;;;39.92;6.50;;;;;;;;;;4903016;29;20059;-95
2022/01/09 21:19:44;;;;;;;45.13;6.22;;;;;;;;;;4911072;29;20408;-93
2022/01/09 21:22:13;;;;;;;56.08;7.15;;;;;;;;;;4892101;29;20072;-95
2022/01/09 21:24:40;;;;;;;57.50;6.63;;;;;;;;;;4913654;29;20056;-93
2022/01/09 21:27:07;;;;;;;64.25;6.97;;;;;;;;;;4916533;29;20152;-95
2022/01/09 21:29:34;;;;;;;74.45;7.25;;;;;;;;;;4909597;29;20047;-93
2022/01/09 21:32:01;;;;;;;59.13;8.18;;;;;;;;;;4895902;29;20044;-93
2022/01/09 21:34:29;;;;;;;66.45;7.65;;;;;;;;;;4912945;29;20096;-92
2022/01/09 21:37:16;;;;;;;66.90;10.80;;;;;;;;;;4910385;29;20059;-93
2022/01/09 21:39:42;;;;;;;82.95;9.63;;;;;;;;;;4914661;29;20044;-91
2022/01/09 21:42:09;;;;;;;69.60;7.85;;;;;;;;;;4897363;29;20063;-90
2022/01/09 21:44:37;;;;;;;64.38;8.00;;;;;;;;;;4898685;29;20048;-93
2022/01/09 21:47:04;;;;;;;65.60;8.80;;;;;;;;;;4899406;29;20143;-92